createdAt,value
2019-02-04T00:00:47.697Z,8.97
2019-02-04T00:05:54.989Z,10.17
2019-02-04T00:11:02.289Z,9.60
2019-02-04T00:16:09.422Z,9.53
2019-02-04T00:21:16.399Z,8.60
2019-02-04T00:26:23.764Z,9.10
2019-02-04T00:31:32.920Z,9.53
2019-02-04T00:36:40.126Z,9.73
2019-02-04T00:41:47.170Z,9.50
2019-02-04T00:46:54.024Z,8.00
2019-02-04T00:52:01.579Z,9.93
2019-02-04T00:57:28.107Z,8.23
2019-02-04T01:02:34.611Z,8.50
2019-02-04T01:07:40.787Z,7.47
2019-02-04T01:12:47.353Z,8.17
2019-02-04T01:17:53.769Z,7.23
2019-02-04T01:23:00.997Z,8.00
2019-02-04T01:28:07.231Z,8.77
2019-02-04T01:33:13.196Z,8.07
2019-02-04T01:38:19.806Z,8.00
2019-02-04T01:43:26.836Z,6.50
2019-02-04T01:48:34.085Z,6.80
2019-02-04T01:53:40.341Z,7.17
2019-02-04T01:58:48.301Z,7.13
2019-02-04T02:03:55.073Z,5.70
2019-02-04T02:09:04.178Z,6.30
2019-02-04T02:14:10.532Z,7.63
2019-02-04T02:19:17.240Z,7.13
2019-02-04T02:24:23.701Z,9.70
2019-02-04T02:29:30.184Z,7.80
2019-02-04T02:34:36.281Z,8.63
2019-02-04T02:39:42.278Z,10.23
2019-02-04T02:44:48.339Z,11.33
2019-02-04T02:49:54.605Z,12.43
2019-02-04T02:55:01.429Z,9.43
2019-02-04T03:00:09.913Z,9.03
2019-02-04T03:05:16.621Z,9.47
2019-02-04T03:10:26.266Z,8.93
2019-02-04T03:15:33.801Z,9.53
2019-02-04T03:20:41.222Z,8.60
2019-02-04T03:25:51.301Z,8.33
2019-02-04T03:30:58.669Z,8.93
2019-02-04T03:36:06.173Z,8.67
2019-02-04T03:41:13.366Z,7.33
2019-02-04T03:46:19.528Z,7.87
2019-02-04T03:51:26.689Z,7.90
2019-02-04T03:56:34.156Z,6.87
2019-02-04T04:01:41.611Z,7.77
2019-02-04T04:06:50.054Z,6.83
2019-02-04T04:11:57.861Z,5.83
2019-02-04T04:17:05.166Z,7.10
2019-02-04T04:22:11.371Z,6.27
2019-02-04T04:27:17.501Z,6.60
2019-02-04T04:32:23.646Z,7.00
2019-02-04T04:37:30.705Z,7.30
2019-02-04T04:42:38.869Z,6.43
2019-02-04T04:47:47.066Z,6.73
2019-02-04T04:52:56.480Z,6.57
2019-02-04T04:58:03.946Z,6.03
2019-02-04T05:03:11.017Z,7.17
2019-02-04T05:08:17.365Z,6.47
2019-02-04T05:13:23.595Z,6.17
2019-02-04T05:18:37.759Z,6.47
2019-02-04T05:23:41.772Z,8.07
2019-02-04T05:28:49.039Z,5.77
2019-02-04T05:33:56.606Z,5.60
2019-02-04T05:39:06.223Z,7.53
2019-02-04T05:44:13.159Z,7.17
2019-02-04T05:49:19.559Z,6.63
2019-02-04T05:54:28.941Z,6.27
2019-02-04T05:59:34.998Z,5.67
2019-02-04T06:04:43.034Z,5.93
2019-02-04T06:09:50.870Z,6.27
2019-02-04T06:14:58.751Z,7.10
2019-02-04T06:20:07.982Z,5.20
2019-02-04T06:25:14.817Z,5.43
2019-02-04T06:30:22.532Z,5.10
2019-02-04T06:35:28.689Z,4.87
2019-02-04T06:40:34.782Z,5.70
2019-02-04T06:45:41.971Z,6.37
2019-02-04T06:50:50.928Z,5.47
2019-02-04T06:55:55.862Z,4.27
2019-02-04T07:01:03.567Z,5.13
2019-02-04T07:06:11.566Z,5.43
2019-02-04T07:11:18.095Z,5.77
2019-02-04T07:16:24.467Z,4.97
2019-02-04T07:21:30.514Z,5.67
2019-02-04T07:26:36.456Z,6.07
2019-02-04T07:31:42.324Z,6.67
2019-02-04T07:36:48.655Z,7.80
2019-02-04T07:41:56.223Z,7.03
2019-02-04T07:47:02.903Z,6.17
2019-02-04T07:52:08.987Z,7.97
2019-02-04T07:57:15.384Z,6.07
2019-02-04T08:02:21.689Z,7.40
2019-02-04T08:07:28.113Z,8.83
2019-02-04T08:12:34.908Z,7.30
2019-02-04T08:17:41.219Z,7.43
2019-02-04T08:22:48.058Z,8.33
2019-02-04T08:27:55.123Z,8.37
2019-02-04T08:33:02.110Z,8.03
2019-02-04T08:38:09.425Z,7.87
2019-02-04T08:43:16.473Z,8.47
2019-02-04T08:48:24.992Z,9.20
2019-02-04T08:53:31.335Z,7.83
2019-02-04T08:58:37.211Z,8.23
2019-02-04T09:03:43.258Z,8.07
2019-02-04T09:08:50.219Z,8.23
2019-02-04T09:13:57.534Z,7.93
2019-02-04T09:19:04.750Z,6.77
2019-02-04T09:24:11.309Z,7.47
2019-02-04T09:29:18.304Z,7.07
2019-02-04T09:34:24.657Z,5.70
2019-02-04T09:39:32.830Z,6.10
2019-02-04T09:44:39.372Z,7.37
2019-02-04T09:49:45.233Z,6.63
2019-02-04T09:54:53.013Z,7.13
2019-02-04T09:59:59.196Z,7.80
2019-02-04T10:05:07.768Z,6.70
2019-02-04T10:10:15.472Z,7.30
2019-02-04T10:15:23.967Z,6.63
2019-02-04T10:20:34.510Z,7.43
2019-02-04T10:25:48.561Z,7.37
2019-02-04T10:30:58.024Z,6.27
2019-02-04T10:36:05.497Z,6.67
2019-02-04T10:41:12.471Z,5.63
2019-02-04T10:46:24.655Z,5.50
2019-02-04T10:51:30.976Z,4.67
2019-02-04T10:56:38.911Z,5.83
2019-02-04T11:01:45.850Z,6.20
2019-02-04T11:06:52.881Z,5.97
2019-02-04T11:12:00.319Z,6.20
2019-02-04T11:17:08.069Z,6.20
2019-02-04T11:22:15.381Z,6.20
2019-02-04T11:27:21.756Z,6.12
2019-02-04T11:32:28.138Z,6.28
2019-02-04T11:37:34.277Z,6.40
2019-02-04T11:42:40.688Z,5.53
2019-02-04T11:47:48.748Z,5.08
2019-02-04T11:52:55.867Z,4.92
2019-02-04T11:58:02.017Z,4.92
2019-02-04T12:03:11.143Z,6.37
2019-02-04T12:08:20.166Z,5.90
2019-02-04T12:13:25.941Z,5.28
2019-02-04T12:18:31.974Z,5.85
2019-02-04T12:23:38.515Z,5.03
2019-02-04T12:28:44.606Z,6.12
2019-02-04T12:33:51.592Z,6.10
2019-02-04T12:38:58.490Z,6.35
2019-02-04T12:44:06.571Z,6.45
2019-02-04T12:49:13.687Z,6.90
2019-02-04T12:54:21.920Z,6.25
2019-02-04T12:59:28.412Z,5.85
2019-02-04T13:04:34.474Z,6.85
2019-02-04T13:09:41.504Z,5.97
2019-02-04T13:14:49.357Z,6.72
2019-02-04T13:19:58.767Z,5.97
2019-02-04T13:25:07.380Z,5.53
2019-02-04T13:30:15.967Z,5.90
2019-02-04T13:35:22.935Z,5.20
2019-02-04T13:40:32.214Z,6.43
2019-02-04T13:45:40.158Z,5.27
2019-02-04T13:50:47.565Z,6.00
2019-02-04T13:55:54.300Z,6.17
2019-02-04T14:01:01.296Z,6.53
2019-02-04T14:06:09.662Z,7.30
2019-02-04T14:11:18.068Z,6.07
2019-02-04T14:16:25.822Z,5.87
2019-02-04T14:21:32.726Z,7.87
2019-02-04T14:26:39.491Z,4.83
2019-02-04T14:31:50.281Z,6.10
2019-02-04T14:36:58.339Z,4.87
2019-02-04T14:42:10.256Z,6.27
2019-02-04T14:47:44.331Z,5.13
2019-02-04T14:53:07.308Z,4.47
2019-02-04T14:58:40.272Z,4.83
2019-02-04T15:04:35.645Z,4.70
2019-02-04T15:10:00.267Z,6.23
2019-02-04T15:15:50.691Z,5.83
2019-02-04T15:21:15.439Z,5.20
2019-02-04T15:26:53.370Z,5.03
2019-02-04T15:32:24.310Z,5.70
2019-02-04T15:37:48.149Z,5.13
2019-02-04T15:43:28.937Z,6.07
2019-02-04T15:48:47.418Z,5.30
2019-02-04T15:53:55.183Z,5.57
2019-02-04T15:59:24.877Z,6.33
2019-02-04T16:04:35.390Z,4.60
2019-02-04T16:09:43.258Z,4.87
2019-02-04T16:14:50.235Z,5.33
2019-02-04T16:19:59.720Z,5.63
2019-02-04T16:25:08.181Z,5.10
2019-02-04T16:30:21.523Z,5.87
2019-02-04T16:35:29.277Z,5.43
2019-02-04T16:40:39.181Z,4.47
2019-02-04T16:45:45.953Z,5.50
2019-02-04T16:51:10.630Z,5.93
2019-02-04T16:56:03.135Z,5.53
2019-02-04T17:01:12.831Z,5.87
2019-02-04T17:06:19.812Z,5.33
2019-02-04T17:11:26.996Z,6.47
2019-02-04T17:16:32.934Z,5.40
2019-02-04T17:21:39.090Z,5.43
2019-02-04T17:26:47.234Z,7.80
2019-02-04T17:31:54.104Z,6.10
2019-02-04T17:37:01.583Z,5.27
2019-02-04T17:42:08.743Z,5.97
2019-02-04T17:47:16.455Z,5.50
2019-02-04T17:52:25.330Z,6.13
2019-02-04T17:57:31.375Z,5.63
2019-02-04T18:02:37.491Z,5.67
2019-02-04T18:07:44.900Z,5.77
2019-02-04T18:12:52.146Z,7.40
2019-02-04T18:17:59.616Z,5.40
2019-02-04T18:23:11.191Z,6.10
2019-02-04T18:28:17.854Z,7.23
2019-02-04T18:33:25.584Z,6.93
2019-02-04T18:38:32.829Z,6.87
2019-02-04T18:43:40.762Z,6.10
2019-02-04T18:48:48.011Z,7.00
2019-02-04T18:53:57.967Z,9.17
2019-02-04T18:59:05.220Z,7.07
2019-02-04T19:04:15.685Z,6.70
2019-02-04T19:09:23.658Z,10.27
2019-02-04T19:14:30.101Z,6.20
2019-02-04T19:19:35.962Z,6.57
2019-02-04T19:24:45.727Z,6.80
2019-02-04T19:29:51.889Z,6.83
2019-02-04T19:34:58.280Z,6.80
2019-02-04T19:40:25.150Z,6.97
2019-02-04T19:45:31.367Z,7.67
2019-02-04T19:50:37.666Z,8.10
2019-02-04T19:55:45.244Z,8.90
2019-02-04T20:00:52.790Z,8.27
2019-02-04T20:06:01.244Z,7.63
2019-02-04T20:11:09.733Z,7.07
2019-02-04T20:16:23.608Z,8.27
2019-02-04T20:21:30.213Z,7.50
2019-02-04T20:26:39.251Z,7.33
2019-02-04T20:31:46.140Z,8.60
2019-02-04T20:36:52.589Z,8.33
2019-02-04T20:42:03.130Z,7.37
2019-02-04T20:47:08.961Z,6.80
2019-02-04T20:52:15.048Z,10.23
2019-02-04T20:57:22.970Z,8.13
2019-02-04T21:02:30.469Z,8.33
2019-02-04T21:07:36.629Z,8.67
2019-02-04T21:12:42.796Z,8.40
2019-02-04T21:17:49.357Z,8.10
2019-02-04T21:22:55.411Z,8.13
2019-02-04T21:28:01.693Z,8.27
2019-02-04T21:33:08.046Z,8.73
2019-02-04T21:38:16.201Z,8.87
2019-02-04T21:43:24.408Z,9.07
2019-02-04T21:48:31.730Z,10.30
2019-02-04T21:53:40.037Z,9.33
2019-02-04T21:58:48.598Z,8.87
2019-02-04T22:03:55.091Z,9.03
2019-02-04T22:09:01.204Z,8.80
2019-02-04T22:14:08.610Z,9.33
2019-02-04T22:19:15.245Z,9.17
2019-02-04T22:24:21.396Z,10.00
2019-02-04T22:29:30.890Z,13.27
2019-02-04T22:34:38.255Z,9.73
2019-02-04T22:39:45.577Z,8.70
2019-02-04T22:44:52.306Z,8.43
2019-02-04T22:49:59.396Z,9.23
2019-02-04T22:55:06.567Z,8.67
2019-02-04T23:00:45.395Z,9.20
2019-02-04T23:05:53.268Z,8.87
2019-02-04T23:11:01.030Z,8.20
2019-02-04T23:16:07.296Z,7.47
2019-02-04T23:21:13.714Z,8.67
2019-02-04T23:26:21.057Z,9.27
2019-02-04T23:31:27.747Z,8.90
2019-02-04T23:36:33.905Z,8.07
2019-02-04T23:41:39.927Z,7.90
2019-02-04T23:46:46.332Z,9.60
2019-02-04T23:51:54.147Z,7.87
2019-02-04T23:57:01.477Z,8.93
